sensor_id;sensor_type;location;lat;lon;timestamp;pressure;altitude;pressure_sealevel;temperature;humidity
62725;BME280;49026;52.600;4.694;2022-08-01T00:00:34;101681.69;;;17.00;84.10
62725;BME280;49026;52.600;4.694;2022-08-01T00:02:59;101689.75;;;16.99;84.59
62725;BME280;49026;52.600;4.694;2022-08-01T00:05:25;101684.53;;;16.97;84.48
62725;BME280;49026;52.600;4.694;2022-08-01T00:07:50;101689.84;;;16.97;84.39
62725;BME280;49026;52.600;4.694;2022-08-01T00:10:16;101684.63;;;16.96;84.93
62725;BME280;49026;52.600;4.694;2022-08-01T00:12:42;101696.84;;;16.98;84.51
62725;BME280;49026;52.600;4.694;2022-08-01T00:15:09;101682.72;;;16.98;84.58
62725;BME280;49026;52.600;4.694;2022-08-01T00:17:35;101685.31;;;16.99;84.44
62725;BME280;49026;52.600;4.694;2022-08-01T00:20:01;101689.75;;;16.99;84.53
62725;BME280;49026;52.600;4.694;2022-08-01T00:22:28;101687.00;;;17.00;84.29
62725;BME280;49026;52.600;4.694;2022-08-01T00:24:55;101688.72;;;17.01;84.39
62725;BME280;49026;52.600;4.694;2022-08-01T00:27:21;101683.41;;;17.01;84.58
62725;BME280;49026;52.600;4.694;2022-08-01T00:29:49;101693.13;;;17.02;84.42
62725;BME280;49026;52.600;4.694;2022-08-01T00:32:14;101693.13;;;17.02;84.44
62725;BME280;49026;52.600;4.694;2022-08-01T00:34:40;101688.72;;;17.01;84.34
62725;BME280;49026;52.600;4.694;2022-08-01T00:37:05;101690.47;;;17.02;84.42
62725;BME280;49026;52.600;4.694;2022-08-01T00:39:31;101684.25;;;17.02;84.31
62725;BME280;49026;52.600;4.694;2022-08-01T00:41:59;101687.81;;;17.02;84.47
62725;BME280;49026;52.600;4.694;2022-08-01T00:44:24;101687.81;;;17.02;84.49
62725;BME280;49026;52.600;4.694;2022-08-01T00:46:50;101688.66;;;17.03;84.51
62725;BME280;49026;52.600;4.694;2022-08-01T00:49:15;101686.84;;;17.03;84.48
62725;BME280;49026;52.600;4.694;2022-08-01T00:51:41;101689.41;;;17.05;84.73
62725;BME280;49026;52.600;4.694;2022-08-01T00:54:09;101703.66;;;17.04;84.60
62725;BME280;49026;52.600;4.694;2022-08-01T00:56:35;101702.78;;;17.03;84.44
62725;BME280;49026;52.600;4.694;2022-08-01T00:59:03;101698.34;;;17.04;84.39
62725;BME280;49026;52.600;4.694;2022-08-01T01:01:28;101705.44;;;17.03;84.29
62725;BME280;49026;52.600;4.694;2022-08-01T01:03:54;101698.59;;;16.99;84.12
62725;BME280;49026;52.600;4.694;2022-08-01T01:09:15;101709.84;;;16.87;83.94
62725;BME280;49026;52.600;4.694;2022-08-01T01:14:51;101709.69;;;16.73;83.91
62725;BME280;49026;52.600;4.694;2022-08-01T01:17:25;101704.53;;;16.70;83.71
62725;BME280;49026;52.600;4.694;2022-08-01T01:19:55;101708.13;;;16.68;83.81
62725;BME280;49026;52.600;4.694;2022-08-01T01:22:42;101699.38;;;16.66;84.08
62725;BME280;49026;52.600;4.694;2022-08-01T01:29:15;101696.66;;;16.68;83.55
62725;BME280;49026;52.600;4.694;2022-08-01T01:32:06;101700.16;;;16.68;83.54
62725;BME280;49026;52.600;4.694;2022-08-01T01:34:33;101701.88;;;16.70;83.59
62725;BME280;49026;52.600;4.694;2022-08-01T01:37:02;101704.53;;;16.70;83.68
62725;BME280;49026;52.600;4.694;2022-08-01T01:39:35;101699.06;;;16.73;83.50
62725;BME280;49026;52.600;4.694;2022-08-01T01:42:05;101699.00;;;16.74;83.54
62725;BME280;49026;52.600;4.694;2022-08-01T01:44:31;101704.22;;;16.76;83.60
62725;BME280;49026;52.600;4.694;2022-08-01T01:46:59;101704.16;;;16.77;83.69
62725;BME280;49026;52.600;4.694;2022-08-01T01:49:34;101707.66;;;16.78;83.64
62725;BME280;49026;52.600;4.694;2022-08-01T01:52:18;101718.25;;;16.78;83.65
62725;BME280;49026;52.600;4.694;2022-08-01T01:55:11;101714.75;;;16.77;83.64
62725;BME280;49026;52.600;4.694;2022-08-01T01:57:50;101708.56;;;16.77;83.66
62725;BME280;49026;52.600;4.694;2022-08-01T02:00:19;101710.38;;;16.76;83.79
62725;BME280;49026;52.600;4.694;2022-08-01T02:02:57;101716.53;;;16.77;83.66
62725;BME280;49026;52.600;4.694;2022-08-01T02:05:30;101718.50;;;16.73;83.59
62725;BME280;49026;52.600;4.694;2022-08-01T02:08:28;101715.16;;;16.70;83.83
62725;BME280;49026;52.600;4.694;2022-08-01T02:10:53;101722.34;;;16.67;83.70
62725;BME280;49026;52.600;4.694;2022-08-01T02:13:42;101718.88;;;16.65;83.84
62725;BME280;49026;52.600;4.694;2022-08-01T02:16:19;101722.41;;;16.66;83.86
62725;BME280;49026;52.600;4.694;2022-08-01T02:18:58;101718.88;;;16.65;83.86
62725;BME280;49026;52.600;4.694;2022-08-01T02:21:29;101723.25;;;16.66;83.87
62725;BME280;49026;52.600;4.694;2022-08-01T02:24:02;101720.63;;;16.66;83.71
62725;BME280;49026;52.600;4.694;2022-08-01T02:26:40;101726.75;;;16.67;83.89
62725;BME280;49026;52.600;4.694;2022-08-01T02:29:19;101722.34;;;16.67;83.78
62725;BME280;49026;52.600;4.694;2022-08-01T02:31:54;101724.03;;;16.68;83.90
62725;BME280;49026;52.600;4.694;2022-08-01T02:34:29;101717.03;;;16.67;83.84
62725;BME280;49026;52.600;4.694;2022-08-01T02:37:12;101724.19;;;16.65;83.85
62725;BME280;49026;52.600;4.694;2022-08-01T02:39:45;101730.47;;;16.64;84.13
62725;BME280;49026;52.600;4.694;2022-08-01T02:42:25;101725.22;;;16.63;84.03
62725;BME280;49026;52.600;4.694;2022-08-01T02:44:57;101730.59;;;16.61;83.90
62725;BME280;49026;52.600;4.694;2022-08-01T02:47:25;101729.06;;;16.57;83.80
62725;BME280;49026;52.600;4.694;2022-08-01T02:50:10;101721.34;;;16.53;83.80
62725;BME280;49026;52.600;4.694;2022-08-01T02:52:40;101720.72;;;16.47;83.78
62725;BME280;49026;52.600;4.694;2022-08-01T02:55:15;101721.88;;;16.42;83.69
62725;BME280;49026;52.600;4.694;2022-08-01T02:57:51;101731.84;;;16.37;83.46
62725;BME280;49026;52.600;4.694;2022-08-01T03:00:19;101736.31;;;16.36;83.49
62725;BME280;49026;52.600;4.694;2022-08-01T03:02:46;101726.63;;;16.35;83.56
62725;BME280;49026;52.600;4.694;2022-08-01T03:05:44;101734.66;;;16.34;83.66
62725;BME280;49026;52.600;4.694;2022-08-01T03:08:29;101737.31;;;16.34;83.79
62725;BME280;49026;52.600;4.694;2022-08-01T03:11:02;101739.09;;;16.33;83.72
62725;BME280;49026;52.600;4.694;2022-08-01T03:13:56;101743.56;;;16.33;83.72
62725;BME280;49026;52.600;4.694;2022-08-01T03:16:35;101745.25;;;16.34;83.88
62725;BME280;49026;52.600;4.694;2022-08-01T03:19:04;101747.84;;;16.35;83.88
62725;BME280;49026;52.600;4.694;2022-08-01T03:21:31;101749.56;;;16.36;83.82
62725;BME280;49026;52.600;4.694;2022-08-01T03:24:10;101753.06;;;16.37;84.07
62725;BME280;49026;52.600;4.694;2022-08-01T03:26:43;101753.84;;;16.39;83.88
62725;BME280;49026;52.600;4.694;2022-08-01T03:29:16;101755.56;;;16.40;84.01
62725;BME280;49026;52.600;4.694;2022-08-01T03:31:50;101762.59;;;16.41;84.18
62725;BME280;49026;52.600;4.694;2022-08-01T03:34:17;101759.00;;;16.42;84.09
62725;BME280;49026;52.600;4.694;2022-08-01T03:39:38;101755.56;;;16.40;84.18
62725;BME280;49026;52.600;4.694;2022-08-01T03:42:16;101759.94;;;16.41;84.15
62725;BME280;49026;52.600;4.694;2022-08-01T03:44:58;101759.31;;;16.36;84.02
62725;BME280;49026;52.600;4.694;2022-08-01T03:48:00;101768.34;;;16.32;84.04
62725;BME280;49026;52.600;4.694;2022-08-01T03:50:31;101764.94;;;16.29;83.94
62725;BME280;49026;52.600;4.694;2022-08-01T03:53:06;101766.81;;;16.27;84.08
62725;BME280;49026;52.600;4.694;2022-08-01T03:55:32;101769.53;;;16.26;84.20
62725;BME280;49026;52.600;4.694;2022-08-01T03:58:00;101764.38;;;16.23;83.77
62725;BME280;49026;52.600;4.694;2022-08-01T04:00:32;101772.41;;;16.21;84.03
62725;BME280;49026;52.600;4.694;2022-08-01T04:03:01;101765.63;;;16.16;84.02
62725;BME280;49026;52.600;4.694;2022-08-01T04:05:27;101764.97;;;16.10;83.92
62725;BME280;49026;52.600;4.694;2022-08-01T04:07:56;101775.81;;;16.06;83.95
62725;BME280;49026;52.600;4.694;2022-08-01T04:10:27;101774.22;;;16.02;84.06
62725;BME280;49026;52.600;4.694;2022-08-01T04:12:53;101775.16;;;16.01;83.85
62725;BME280;49026;52.600;4.694;2022-08-01T04:15:19;101777.00;;;15.99;83.85
62725;BME280;49026;52.600;4.694;2022-08-01T04:17:47;101788.63;;;15.96;83.91
62725;BME280;49026;52.600;4.694;2022-08-01T04:20:15;101792.28;;;15.93;83.99
62725;BME280;49026;52.600;4.694;2022-08-01T04:22:44;101789.69;;;15.92;83.80
62725;BME280;49026;52.600;4.694;2022-08-01T04:25:26;101796.81;;;15.91;84.08
62725;BME280;49026;52.600;4.694;2022-08-01T04:27:54;101782.78;;;15.89;83.83
62725;BME280;49026;52.600;4.694;2022-08-01T04:30:23;101787.22;;;15.89;83.89
62725;BME280;49026;52.600;4.694;2022-08-01T04:32:52;101789.00;;;15.88;83.92
62725;BME280;49026;52.600;4.694;2022-08-01T04:35:22;101789.22;;;15.84;84.18
62725;BME280;49026;52.600;4.694;2022-08-01T04:37:53;101797.25;;;15.82;84.00
62725;BME280;49026;52.600;4.694;2022-08-01T04:40:25;101799.09;;;15.80;84.18
62725;BME280;49026;52.600;4.694;2022-08-01T04:42:56;101797.38;;;15.79;84.14
62725;BME280;49026;52.600;4.694;2022-08-01T04:45:23;101815.09;;;15.79;83.89
62725;BME280;49026;52.600;4.694;2022-08-01T04:47:49;101811.66;;;15.75;84.17
62725;BME280;49026;52.600;4.694;2022-08-01T04:50:14;101816.13;;;15.74;84.12
62725;BME280;49026;52.600;4.694;2022-08-01T04:52:40;101803.00;;;15.71;84.32
62725;BME280;49026;52.600;4.694;2022-08-01T04:55:08;101813.66;;;15.70;84.11
62725;BME280;49026;52.600;4.694;2022-08-01T05:00:49;101812.09;;;15.66;84.15
62725;BME280;49026;52.600;4.694;2022-08-01T05:03:15;101809.53;;;15.64;83.99
62725;BME280;49026;52.600;4.694;2022-08-01T05:05:40;101826.19;;;15.66;84.21
62725;BME280;49026;52.600;4.694;2022-08-01T05:08:06;101820.69;;;15.71;84.01
62725;BME280;49026;52.600;4.694;2022-08-01T05:10:31;101820.47;;;15.77;84.44
62725;BME280;49026;52.600;4.694;2022-08-01T05:12:57;101827.31;;;15.81;84.26
62725;BME280;49026;52.600;4.694;2022-08-01T05:15:22;101826.53;;;15.79;84.34
62725;BME280;49026;52.600;4.694;2022-08-01T05:17:48;101821.16;;;15.81;84.26
62725;BME280;49026;52.600;4.694;2022-08-01T05:20:13;101823.44;;;15.88;84.23
62725;BME280;49026;52.600;4.694;2022-08-01T05:22:39;101823.94;;;15.97;84.33
62725;BME280;49026;52.600;4.694;2022-08-01T05:25:05;101822.56;;;16.07;84.27
62725;BME280;49026;52.600;4.694;2022-08-01T05:27:31;101827.88;;;16.07;84.02
62725;BME280;49026;52.600;4.694;2022-08-01T05:29:56;101824.59;;;16.02;84.12
62725;BME280;49026;52.600;4.694;2022-08-01T05:32:22;101819.59;;;15.96;84.53
62725;BME280;49026;52.600;4.694;2022-08-01T05:34:48;101812.84;;;15.88;84.52
62725;BME280;49026;52.600;4.694;2022-08-01T05:37:13;101828.75;;;15.88;84.47
62725;BME280;49026;52.600;4.694;2022-08-01T05:39:38;101824.31;;;15.89;84.47
62725;BME280;49026;52.600;4.694;2022-08-01T05:42:04;101826.91;;;15.90;84.70
62725;BME280;49026;52.600;4.694;2022-08-01T05:44:29;101828.69;;;15.90;84.41
62725;BME280;49026;52.600;4.694;2022-08-01T05:46:55;101839.28;;;15.90;84.42
62725;BME280;49026;52.600;4.694;2022-08-01T05:49:23;101841.84;;;15.91;84.54
62725;BME280;49026;52.600;4.694;2022-08-01T05:51:49;101846.25;;;15.92;84.84
62725;BME280;49026;52.600;4.694;2022-08-01T05:54:14;101846.09;;;15.96;84.59
62725;BME280;49026;52.600;4.694;2022-08-01T05:56:42;101847.53;;;16.03;84.25
62725;BME280;49026;52.600;4.694;2022-08-01T05:59:08;101851.53;;;16.11;84.55
62725;BME280;49026;52.600;4.694;2022-08-01T06:01:33;101849.44;;;16.18;84.53
62725;BME280;49026;52.600;4.694;2022-08-01T06:03:58;101856.97;;;16.27;84.46
62725;BME280;49026;52.600;4.694;2022-08-01T06:06:24;101852.22;;;16.34;84.44
62725;BME280;49026;52.600;4.694;2022-08-01T06:08:49;101864.53;;;16.35;84.42
62725;BME280;49026;52.600;4.694;2022-08-01T06:11:15;101871.44;;;16.39;84.41
62725;BME280;49026;52.600;4.694;2022-08-01T06:13:43;101865.97;;;16.42;84.54
62725;BME280;49026;52.600;4.694;2022-08-01T06:16:08;101860.34;;;16.48;84.49
62725;BME280;49026;52.600;4.694;2022-08-01T06:18:34;101857.50;;;16.53;84.45
62725;BME280;49026;52.600;4.694;2022-08-01T06:20:59;101858.03;;;16.60;84.49
62725;BME280;49026;52.600;4.694;2022-08-01T06:23:24;101867.47;;;16.65;84.33
62725;BME280;49026;52.600;4.694;2022-08-01T06:25:53;101862.91;;;16.69;84.57
62725;BME280;49026;52.600;4.694;2022-08-01T06:28:23;101863.75;;;16.70;84.42
62725;BME280;49026;52.600;4.694;2022-08-01T06:30:48;101854.16;;;16.67;84.29
62725;BME280;49026;52.600;4.694;2022-08-01T06:33:14;101863.06;;;16.66;84.57
62725;BME280;49026;52.600;4.694;2022-08-01T06:35:41;101868.16;;;16.71;84.21
62725;BME280;49026;52.600;4.694;2022-08-01T06:38:07;101862.59;;;16.75;84.42
62725;BME280;49026;52.600;4.694;2022-08-01T06:40:32;101860.75;;;16.77;84.66
62725;BME280;49026;52.600;4.694;2022-08-01T06:42:57;101867.47;;;16.84;84.84
62725;BME280;49026;52.600;4.694;2022-08-01T06:45:23;101875.78;;;16.96;84.93
62725;BME280;49026;52.600;4.694;2022-08-01T06:47:50;101871.38;;;17.12;84.96
62725;BME280;49026;52.600;4.694;2022-08-01T06:50:16;101878.97;;;17.20;84.70
62725;BME280;49026;52.600;4.694;2022-08-01T06:52:41;101884.13;;;17.23;84.00
62725;BME280;49026;52.600;4.694;2022-08-01T06:55:10;101889.28;;;17.26;84.76
62725;BME280;49026;52.600;4.694;2022-08-01T06:57:35;101887.06;;;17.34;85.29
62725;BME280;49026;52.600;4.694;2022-08-01T07:00:06;101885.19;;;17.36;84.92
62725;BME280;49026;52.600;4.694;2022-08-01T07:02:34;101881.28;;;17.44;85.78
62725;BME280;49026;52.600;4.694;2022-08-01T07:05:01;101889.31;;;17.59;86.00
62725;BME280;49026;52.600;4.694;2022-08-01T07:07:30;101886.22;;;17.67;85.65
62725;BME280;49026;52.600;4.694;2022-08-01T07:09:56;101889.47;;;17.72;85.38
62725;BME280;49026;52.600;4.694;2022-08-01T07:12:21;101890.97;;;17.78;86.25
62725;BME280;49026;52.600;4.694;2022-08-01T07:14:47;101892.91;;;17.92;85.94
62725;BME280;49026;52.600;4.694;2022-08-01T07:17:12;101886.94;;;18.04;85.71
62725;BME280;49026;52.600;4.694;2022-08-01T07:19:37;101883.34;;;18.21;85.44
62725;BME280;49026;52.600;4.694;2022-08-01T07:22:02;101891.38;;;18.36;86.14
62725;BME280;49026;52.600;4.694;2022-08-01T07:24:28;101896.88;;;18.48;86.20
62725;BME280;49026;52.600;4.694;2022-08-01T07:26:54;101900.47;;;18.63;85.23
62725;BME280;49026;52.600;4.694;2022-08-01T07:29:31;101902.50;;;18.74;86.45
62725;BME280;49026;52.600;4.694;2022-08-01T07:31:57;101903.38;;;18.75;85.20
62725;BME280;49026;52.600;4.694;2022-08-01T07:34:23;101907.69;;;18.61;85.94
62725;BME280;49026;52.600;4.694;2022-08-01T07:36:51;101911.03;;;18.49;86.49
62725;BME280;49026;52.600;4.694;2022-08-01T07:39:20;101916.81;;;18.41;86.33
62725;BME280;49026;52.600;4.694;2022-08-01T07:41:45;101923.31;;;18.36;86.27
62725;BME280;49026;52.600;4.694;2022-08-01T07:44:10;101923.66;;;18.45;85.86
62725;BME280;49026;52.600;4.694;2022-08-01T07:46:36;101920.25;;;18.43;85.99
62725;BME280;49026;52.600;4.694;2022-08-01T07:49:03;101928.56;;;18.37;85.85
62725;BME280;49026;52.600;4.694;2022-08-01T07:51:29;101922.91;;;18.43;86.10
62725;BME280;49026;52.600;4.694;2022-08-01T07:53:54;101928.31;;;18.58;86.08
62725;BME280;49026;52.600;4.694;2022-08-01T07:56:21;101932.84;;;18.72;84.40
62725;BME280;49026;52.600;4.694;2022-08-01T07:58:49;101939.13;;;18.86;84.99
62725;BME280;49026;52.600;4.694;2022-08-01T08:01:17;101937.22;;;19.04;84.65
62725;BME280;49026;52.600;4.694;2022-08-01T08:03:45;101934.31;;;19.23;85.04
62725;BME280;49026;52.600;4.694;2022-08-01T08:06:10;101948.53;;;19.38;85.25
62725;BME280;49026;52.600;4.694;2022-08-01T08:08:38;101934.88;;;19.29;85.25
62725;BME280;49026;52.600;4.694;2022-08-01T08:11:06;101945.00;;;19.38;85.92
62725;BME280;49026;52.600;4.694;2022-08-01T08:13:31;101937.59;;;19.43;85.79
62725;BME280;49026;52.600;4.694;2022-08-01T08:15:59;101941.81;;;19.61;85.89
62725;BME280;49026;52.600;4.694;2022-08-01T08:18:25;101945.75;;;19.85;84.14
62725;BME280;49026;52.600;4.694;2022-08-01T08:20:50;101948.50;;;19.97;84.68
62725;BME280;49026;52.600;4.694;2022-08-01T08:23:16;101951.84;;;20.15;85.33
62725;BME280;49026;52.600;4.694;2022-08-01T08:25:59;101947.81;;;20.23;84.67
62725;BME280;49026;52.600;4.694;2022-08-01T08:28:25;101951.19;;;20.12;84.30
62725;BME280;49026;52.600;4.694;2022-08-01T08:30:50;101948.03;;;20.05;83.99
62725;BME280;49026;52.600;4.694;2022-08-01T08:33:21;101959.19;;;19.97;82.82
62725;BME280;49026;52.600;4.694;2022-08-01T08:35:46;101961.19;;;20.08;83.97
62725;BME280;49026;52.600;4.694;2022-08-01T08:38:11;101960.88;;;20.27;82.11
62725;BME280;49026;52.600;4.694;2022-08-01T08:40:40;101967.75;;;20.31;83.11
62725;BME280;49026;52.600;4.694;2022-08-01T08:43:08;101966.03;;;20.30;80.57
62725;BME280;49026;52.600;4.694;2022-08-01T08:45:33;101962.06;;;20.50;83.38
62725;BME280;49026;52.600;4.694;2022-08-01T08:47:59;101959.56;;;20.62;83.66
62725;BME280;49026;52.600;4.694;2022-08-01T08:50:25;101954.91;;;20.65;81.58
62725;BME280;49026;52.600;4.694;2022-08-01T08:52:54;101965.59;;;20.65;80.79
62725;BME280;49026;52.600;4.694;2022-08-01T08:55:20;101960.06;;;20.68;78.95
62725;BME280;49026;52.600;4.694;2022-08-01T08:57:48;101960.72;;;20.72;79.09
62725;BME280;49026;52.600;4.694;2022-08-01T09:00:16;101964.69;;;20.79;77.30
62725;BME280;49026;52.600;4.694;2022-08-01T09:02:43;101959.44;;;20.78;76.62
62725;BME280;49026;52.600;4.694;2022-08-01T09:05:09;101965.41;;;20.68;78.64
62725;BME280;49026;52.600;4.694;2022-08-01T09:07:34;101968.91;;;20.54;76.08
62725;BME280;49026;52.600;4.694;2022-08-01T09:10:00;101964.25;;;20.58;79.62
62725;BME280;49026;52.600;4.694;2022-08-01T09:12:25;101972.16;;;20.60;75.38
62725;BME280;49026;52.600;4.694;2022-08-01T09:14:50;101973.41;;;20.54;77.17
62725;BME280;49026;52.600;4.694;2022-08-01T09:17:18;101976.09;;;20.54;78.08
62725;BME280;49026;52.600;4.694;2022-08-01T09:19:47;101976.28;;;20.65;78.39
62725;BME280;49026;52.600;4.694;2022-08-01T09:22:15;101966.72;;;20.76;77.69
62725;BME280;49026;52.600;4.694;2022-08-01T09:25:00;101979.69;;;20.82;77.03
62725;BME280;49026;52.600;4.694;2022-08-01T09:27:28;101981.91;;;20.88;76.54
62725;BME280;49026;52.600;4.694;2022-08-01T09:30:12;101982.34;;;20.82;73.26
62725;BME280;49026;52.600;4.694;2022-08-01T09:32:55;101984.69;;;20.86;75.99
62725;BME280;49026;52.600;4.694;2022-08-01T09:35:30;101984.19;;;20.94;75.62
62725;BME280;49026;52.600;4.694;2022-08-01T09:38:25;101988.59;;;20.95;76.17
62725;BME280;49026;52.600;4.694;2022-08-01T09:40:58;101987.97;;;21.04;76.68
62725;BME280;49026;52.600;4.694;2022-08-01T09:43:26;101989.50;;;21.08;75.08
62725;BME280;49026;52.600;4.694;2022-08-01T09:45:51;101988.72;;;21.06;73.86
62725;BME280;49026;52.600;4.694;2022-08-01T09:48:18;101990.63;;;21.04;74.80
62725;BME280;49026;52.600;4.694;2022-08-01T09:50:45;101998.56;;;21.06;75.49
62725;BME280;49026;52.600;4.694;2022-08-01T09:53:12;101994.06;;;21.06;75.26
62725;BME280;49026;52.600;4.694;2022-08-01T09:55:41;102001.34;;;21.04;76.57
62725;BME280;49026;52.600;4.694;2022-08-01T09:58:07;102003.81;;;21.07;75.80
62725;BME280;49026;52.600;4.694;2022-08-01T10:00:35;101994.59;;;21.12;75.38
62725;BME280;49026;52.600;4.694;2022-08-01T10:05:44;101995.31;;;21.28;73.29
62725;BME280;49026;52.600;4.694;2022-08-01T10:08:10;102004.31;;;21.27;74.39
62725;BME280;49026;52.600;4.694;2022-08-01T10:10:37;101998.84;;;21.28;73.55
62725;BME280;49026;52.600;4.694;2022-08-01T10:13:03;101998.41;;;21.22;73.17
62725;BME280;49026;52.600;4.694;2022-08-01T10:15:30;102002.78;;;21.23;74.16
62725;BME280;49026;52.600;4.694;2022-08-01T10:18:00;102010.41;;;21.29;72.18
62725;BME280;49026;52.600;4.694;2022-08-01T10:20:28;102008.78;;;21.26;73.87
62725;BME280;49026;52.600;4.694;2022-08-01T10:22:55;102005.34;;;21.24;70.95
62725;BME280;49026;52.600;4.694;2022-08-01T10:25:21;102015.75;;;21.29;73.67
62725;BME280;49026;52.600;4.694;2022-08-01T10:27:52;102007.31;;;21.35;73.69
62725;BME280;49026;52.600;4.694;2022-08-01T10:30:20;102007.75;;;21.42;70.73
62725;BME280;49026;52.600;4.694;2022-08-01T10:32:46;102006.50;;;21.48;73.12
62725;BME280;49026;52.600;4.694;2022-08-01T10:35:12;101998.38;;;21.49;71.11
62725;BME280;49026;52.600;4.694;2022-08-01T10:37:43;101998.75;;;21.43;69.61
62725;BME280;49026;52.600;4.694;2022-08-01T10:40:14;102013.06;;;21.29;70.37
62725;BME280;49026;52.600;4.694;2022-08-01T10:42:43;102010.59;;;21.26;68.69
62725;BME280;49026;52.600;4.694;2022-08-01T10:45:14;102010.28;;;21.31;70.77
62725;BME280;49026;52.600;4.694;2022-08-01T10:47:45;102005.66;;;21.47;72.01
62725;BME280;49026;52.600;4.694;2022-08-01T10:50:19;102008.56;;;21.82;72.31
62725;BME280;49026;52.600;4.694;2022-08-01T10:53:07;102012.09;;;22.21;72.35
62725;BME280;49026;52.600;4.694;2022-08-01T10:55:49;102007.38;;;22.38;70.46
62725;BME280;49026;52.600;4.694;2022-08-01T11:03:42;102012.97;;;22.09;68.49
62725;BME280;49026;52.600;4.694;2022-08-01T11:06:16;102021.19;;;22.06;71.09
62725;BME280;49026;52.600;4.694;2022-08-01T11:08:42;102015.75;;;22.20;71.55
62725;BME280;49026;52.600;4.694;2022-08-01T11:11:15;102030.28;;;22.16;71.65
62725;BME280;49026;52.600;4.694;2022-08-01T11:16:35;102021.53;;;22.27;69.95
62725;BME280;49026;52.600;4.694;2022-08-01T11:19:07;102016.81;;;22.31;69.67
62725;BME280;49026;52.600;4.694;2022-08-01T11:27:21;102024.13;;;22.29;68.84
62725;BME280;49026;52.600;4.694;2022-08-01T11:32:55;102025.25;;;22.25;69.16
62725;BME280;49026;52.600;4.694;2022-08-01T11:35:22;102026.44;;;22.46;70.13
62725;BME280;49026;52.600;4.694;2022-08-01T11:37:53;102017.94;;;22.89;70.14
62725;BME280;49026;52.600;4.694;2022-08-01T11:40:28;102021.59;;;23.37;69.71
62725;BME280;49026;52.600;4.694;2022-08-01T11:46:06;102018.19;;;23.35;68.18
62725;BME280;49026;52.600;4.694;2022-08-01T11:48:34;102005.03;;;23.43;66.73
62725;BME280;49026;52.600;4.694;2022-08-01T11:50:59;102012.00;;;23.45;66.96
62725;BME280;49026;52.600;4.694;2022-08-01T11:53:24;102015.44;;;23.47;68.23
62725;BME280;49026;52.600;4.694;2022-08-01T11:55:52;102016.63;;;23.43;68.44
62725;BME280;49026;52.600;4.694;2022-08-01T11:58:23;102018.34;;;23.44;67.59
62725;BME280;49026;52.600;4.694;2022-08-01T12:00:55;102012.13;;;23.44;66.94
62725;BME280;49026;52.600;4.694;2022-08-01T12:03:31;102015.31;;;23.49;67.18
62725;BME280;49026;52.600;4.694;2022-08-01T12:05:58;102012.63;;;23.60;67.89
62725;BME280;49026;52.600;4.694;2022-08-01T12:08:33;102018.88;;;23.61;66.39
62725;BME280;49026;52.600;4.694;2022-08-01T12:11:00;102023.38;;;23.60;67.32
62725;BME280;49026;52.600;4.694;2022-08-01T12:13:39;102024.84;;;23.64;65.18
62725;BME280;49026;52.600;4.694;2022-08-01T12:16:09;102026.28;;;23.46;64.19
62725;BME280;49026;52.600;4.694;2022-08-01T12:18:41;102020.13;;;23.08;62.85
62725;BME280;49026;52.600;4.694;2022-08-01T12:21:09;102024.72;;;23.19;66.08
62725;BME280;49026;52.600;4.694;2022-08-01T12:23:37;102026.22;;;23.35;65.76
62725;BME280;49026;52.600;4.694;2022-08-01T12:26:04;102022.25;;;23.52;66.10
62725;BME280;49026;52.600;4.694;2022-08-01T12:28:39;102022.13;;;23.89;65.11
62725;BME280;49026;52.600;4.694;2022-08-01T12:31:05;102028.13;;;24.03;64.89
62725;BME280;49026;52.600;4.694;2022-08-01T12:33:30;102028.84;;;24.05;63.17
62725;BME280;49026;52.600;4.694;2022-08-01T12:35:56;102030.56;;;24.18;64.32
62725;BME280;49026;52.600;4.694;2022-08-01T12:38:22;102015.91;;;24.22;63.69
62725;BME280;49026;52.600;4.694;2022-08-01T12:40:49;102029.22;;;24.12;65.18
62725;BME280;49026;52.600;4.694;2022-08-01T12:43:17;102028.63;;;24.31;64.55
62725;BME280;49026;52.600;4.694;2022-08-01T12:45:43;102034.09;;;24.52;64.58
62725;BME280;49026;52.600;4.694;2022-08-01T12:48:11;102032.63;;;24.37;62.74
62725;BME280;49026;52.600;4.694;2022-08-01T12:50:39;102026.19;;;24.28;53.96
62725;BME280;49026;52.600;4.694;2022-08-01T12:53:08;102034.00;;;24.42;62.59
62725;BME280;49026;52.600;4.694;2022-08-01T12:55:43;102026.41;;;24.48;64.69
62725;BME280;49026;52.600;4.694;2022-08-01T12:58:13;102024.94;;;24.77;64.85
62725;BME280;49026;52.600;4.694;2022-08-01T13:00:43;102017.81;;;24.88;64.20
62725;BME280;49026;52.600;4.694;2022-08-01T13:03:14;102022.97;;;24.80;63.56
62725;BME280;49026;52.600;4.694;2022-08-01T13:05:53;102017.97;;;24.64;60.55
62725;BME280;49026;52.600;4.694;2022-08-01T13:08:39;102012.59;;;24.64;61.28
62725;BME280;49026;52.600;4.694;2022-08-01T13:13:46;102009.19;;;24.62;61.43
62725;BME280;49026;52.600;4.694;2022-08-01T13:16:22;102004.41;;;24.65;62.42
62725;BME280;49026;52.600;4.694;2022-08-01T13:18:50;102000.94;;;24.86;58.51
62725;BME280;49026;52.600;4.694;2022-08-01T13:24:07;102004.31;;;24.99;60.50
62725;BME280;49026;52.600;4.694;2022-08-01T13:29:08;101999.59;;;24.91;60.41
62725;BME280;49026;52.600;4.694;2022-08-01T13:31:35;101996.94;;;25.12;59.87
62725;BME280;49026;52.600;4.694;2022-08-01T13:34:01;102001.19;;;25.47;61.11
62725;BME280;49026;52.600;4.694;2022-08-01T13:36:27;101993.47;;;26.06;60.77
62725;BME280;49026;52.600;4.694;2022-08-01T13:38:54;101993.22;;;26.50;59.59
62725;BME280;49026;52.600;4.694;2022-08-01T13:41:39;101997.69;;;26.39;60.59
62725;BME280;49026;52.600;4.694;2022-08-01T13:44:04;101986.09;;;26.49;59.97
62725;BME280;49026;52.600;4.694;2022-08-01T13:46:33;101993.50;;;26.56;59.12
62725;BME280;49026;52.600;4.694;2022-08-01T13:48:58;101988.50;;;26.42;57.62